createdAt,value
2018-06-30T00:00:58.869Z,97.90
2018-06-30T00:03:33.484Z,98.00
2018-06-30T00:06:03.068Z,97.80
2018-06-30T00:08:32.484Z,97.60
2018-06-30T00:11:02.092Z,97.50
2018-06-30T00:13:31.398Z,97.50
2018-06-30T00:16:00.871Z,97.50
2018-06-30T00:18:30.458Z,97.40
2018-06-30T00:21:00.001Z,97.40
2018-06-30T00:23:29.469Z,97.50
2018-06-30T00:25:58.932Z,97.60
2018-06-30T00:28:28.380Z,97.80
2018-06-30T00:30:57.667Z,98.10
2018-06-30T00:33:27.217Z,98.30
2018-06-30T00:35:56.569Z,98.30
2018-06-30T00:38:25.832Z,97.60
2018-06-30T00:40:55.371Z,97.80
2018-06-30T00:43:24.667Z,97.70
2018-06-30T00:45:54.005Z,97.70
2018-06-30T00:48:23.319Z,98.00
2018-06-30T00:50:52.668Z,98.00
2018-06-30T00:53:21.936Z,97.80
2018-06-30T00:55:51.199Z,97.70
2018-06-30T00:58:20.444Z,97.80
2018-06-30T01:00:49.776Z,97.70
2018-06-30T01:03:19.071Z,97.50
2018-06-30T01:05:48.414Z,97.40
2018-06-30T01:08:17.701Z,97.40
2018-06-30T01:10:46.988Z,97.40
2018-06-30T01:13:16.289Z,97.30
2018-06-30T01:15:45.578Z,97.50
2018-06-30T01:18:14.872Z,97.70
2018-06-30T01:20:44.281Z,97.80
2018-06-30T01:23:13.933Z,97.90
2018-06-30T01:25:43.428Z,98.00
2018-06-30T01:28:12.917Z,98.20
2018-06-30T01:30:42.725Z,98.20
2018-06-30T01:33:12.041Z,98.50
2018-06-30T01:35:41.358Z,98.60
2018-06-30T01:38:10.771Z,98.70
2018-06-30T01:40:40.082Z,98.80
2018-06-30T01:43:09.413Z,98.90
2018-06-30T01:45:38.748Z,99.10
2018-06-30T01:48:08.044Z,99.10
2018-06-30T01:50:37.372Z,99.30
2018-06-30T01:53:06.673Z,99.20
2018-06-30T01:55:35.980Z,99.20
2018-06-30T01:58:05.852Z,99.00
2018-06-30T02:00:35.152Z,99.10
2018-06-30T02:03:04.672Z,99.00
2018-06-30T02:05:33.985Z,99.10
2018-06-30T02:08:03.338Z,99.10
2018-06-30T02:10:32.678Z,99.10
2018-06-30T02:13:02.045Z,98.90
2018-06-30T02:15:31.349Z,98.90
2018-06-30T02:18:00.763Z,98.90
2018-06-30T02:20:30.070Z,98.80
2018-06-30T02:22:59.365Z,98.70
2018-06-30T02:25:28.752Z,98.70
2018-06-30T02:27:58.156Z,98.50
2018-06-30T02:30:27.463Z,98.60
2018-06-30T02:32:56.748Z,98.80
2018-06-30T02:35:26.089Z,98.90
2018-06-30T02:37:55.412Z,99.30
2018-06-30T02:40:24.908Z,98.80
2018-06-30T02:42:54.266Z,98.70
2018-06-30T02:45:23.590Z,98.70
2018-06-30T02:47:52.920Z,98.90
2018-06-30T02:50:22.240Z,99.00
2018-06-30T02:52:51.559Z,99.10
2018-06-30T02:55:20.950Z,99.40
2018-06-30T02:57:50.276Z,99.60
2018-06-30T03:00:19.552Z,99.80
2018-06-30T03:02:48.962Z,99.80
2018-06-30T03:05:18.284Z,99.90
2018-06-30T03:07:47.600Z,99.90
2018-06-30T03:10:16.895Z,99.80
2018-06-30T03:12:46.211Z,99.90
2018-06-30T03:15:15.510Z,99.90
2018-06-30T03:17:44.814Z,99.90
2018-06-30T03:20:14.133Z,99.90
2018-06-30T03:22:43.565Z,99.70
2018-06-30T03:25:12.904Z,99.70
2018-06-30T03:27:42.220Z,99.80
2018-06-30T03:30:11.532Z,99.80
2018-06-30T03:32:40.844Z,99.80
2018-06-30T03:35:10.143Z,99.90
2018-06-30T03:37:39.449Z,99.90
2018-06-30T03:40:08.767Z,99.90
2018-06-30T03:42:38.048Z,99.90
2018-06-30T03:45:07.440Z,99.90
2018-06-30T03:47:36.755Z,99.90
2018-06-30T03:50:06.057Z,99.90
2018-06-30T03:52:35.365Z,99.90
2018-06-30T03:55:04.797Z,99.90
2018-06-30T03:57:34.085Z,99.90
2018-06-30T04:00:03.525Z,99.90
2018-06-30T04:02:32.813Z,99.90
2018-06-30T04:05:02.209Z,99.90
2018-06-30T04:07:31.555Z,99.90
2018-06-30T04:10:00.843Z,99.90
2018-06-30T04:12:30.170Z,99.90
2018-06-30T04:14:59.492Z,99.90
2018-06-30T04:17:28.784Z,99.90
2018-06-30T04:19:58.131Z,99.90
2018-06-30T04:22:27.433Z,99.90
2018-06-30T04:24:56.792Z,99.90
2018-06-30T04:27:26.064Z,99.90
2018-06-30T04:29:55.411Z,99.90
2018-06-30T04:32:24.715Z,99.90
2018-06-30T04:34:54.131Z,99.90
2018-06-30T04:37:23.420Z,99.90
2018-06-30T04:39:52.781Z,99.90
2018-06-30T04:42:22.097Z,99.90
2018-06-30T04:44:51.425Z,99.90
2018-06-30T04:47:20.744Z,99.90
2018-06-30T04:49:50.056Z,99.90
2018-06-30T04:52:19.381Z,99.90
2018-06-30T04:54:48.708Z,99.90
2018-06-30T04:57:18.033Z,99.90
2018-06-30T04:59:47.351Z,99.90
2018-06-30T05:02:16.626Z,99.90
2018-06-30T05:04:45.961Z,99.90
2018-06-30T05:07:15.300Z,99.90
2018-06-30T05:09:44.651Z,99.80
2018-06-30T05:12:13.964Z,99.90
2018-06-30T05:14:43.291Z,99.80
2018-06-30T05:17:12.588Z,99.60
2018-06-30T05:19:41.904Z,99.50
2018-06-30T05:22:11.292Z,99.50
2018-06-30T05:24:40.784Z,99.30
2018-06-30T05:27:10.276Z,99.30
2018-06-30T05:29:39.841Z,99.60
2018-06-30T05:32:14.925Z,99.20
2018-06-30T05:34:44.434Z,99.20
2018-06-30T05:37:14.030Z,99.10
2018-06-30T05:39:43.511Z,98.90
2018-06-30T05:42:13.114Z,98.80
2018-06-30T05:44:42.682Z,98.60
2018-06-30T05:47:12.389Z,98.40
2018-06-30T05:49:41.635Z,98.60
2018-06-30T05:52:10.981Z,98.50
2018-06-30T05:54:40.252Z,98.50
2018-06-30T05:57:09.655Z,98.60
2018-06-30T05:59:38.956Z,98.50
2018-06-30T06:02:08.330Z,98.40
2018-06-30T06:04:37.650Z,98.30
2018-06-30T06:07:06.952Z,97.90
2018-06-30T06:09:36.303Z,97.60
2018-06-30T06:12:05.742Z,97.30
2018-06-30T06:14:35.054Z,97.00
2018-06-30T06:17:04.408Z,96.80
2018-06-30T06:19:33.712Z,96.60
2018-06-30T06:22:03.078Z,96.50
2018-06-30T06:24:35.799Z,96.40
2018-06-30T06:27:05.524Z,96.40
2018-06-30T06:29:34.965Z,96.40
2018-06-30T06:32:04.547Z,96.10
2018-06-30T06:34:34.033Z,95.90
2018-06-30T06:37:03.608Z,95.80
2018-06-30T06:39:33.108Z,95.70
2018-06-30T06:42:02.823Z,95.70
2018-06-30T06:44:32.340Z,95.50
2018-06-30T06:47:01.901Z,95.30
2018-06-30T06:49:31.366Z,95.10
2018-06-30T06:52:00.691Z,95.00
2018-06-30T06:54:30.033Z,94.90
2018-06-30T06:56:59.428Z,95.00
2018-06-30T06:59:28.693Z,95.20
2018-06-30T07:01:57.996Z,95.10
2018-06-30T07:04:27.815Z,94.70
2018-06-30T07:06:57.318Z,94.30
2018-06-30T07:09:26.811Z,94.00
2018-06-30T07:11:56.308Z,93.70
2018-06-30T07:14:25.772Z,93.60
2018-06-30T07:16:55.316Z,93.10
2018-06-30T07:19:24.807Z,92.70
2018-06-30T07:21:54.072Z,92.60
2018-06-30T07:24:23.430Z,92.00
2018-06-30T07:26:52.724Z,91.00
2018-06-30T07:29:22.045Z,91.40
2018-06-30T07:31:51.343Z,90.80
2018-06-30T07:34:20.756Z,90.80
2018-06-30T07:36:50.207Z,88.50
2018-06-30T07:39:19.524Z,89.40
2018-06-30T07:41:48.828Z,89.60
2018-06-30T07:44:18.131Z,88.70
2018-06-30T07:46:47.569Z,89.10
2018-06-30T07:49:16.914Z,85.60
2018-06-30T07:51:46.205Z,87.50
2018-06-30T07:54:15.520Z,86.40
2018-06-30T07:56:44.854Z,84.40
2018-06-30T07:59:14.197Z,85.40
2018-06-30T08:01:43.515Z,83.30
2018-06-30T08:04:12.828Z,85.20
2018-06-30T08:06:42.180Z,83.50
2018-06-30T08:09:11.700Z,83.60
2018-06-30T08:11:41.929Z,83.30
2018-06-30T08:14:11.550Z,83.90
2018-06-30T08:16:41.036Z,81.20
2018-06-30T08:19:10.563Z,83.90
2018-06-30T08:21:40.053Z,83.70
2018-06-30T08:24:09.401Z,80.90
2018-06-30T08:26:38.679Z,78.20
2018-06-30T08:29:08.032Z,78.20
2018-06-30T08:31:37.384Z,80.00
2018-06-30T08:34:06.966Z,80.80
2018-06-30T08:36:36.351Z,82.00
2018-06-30T08:39:08.850Z,79.20
2018-06-30T08:41:38.129Z,80.30
2018-06-30T08:44:07.856Z,79.50
2018-06-30T08:46:38.916Z,80.00
2018-06-30T08:49:08.968Z,77.60
2018-06-30T08:51:38.600Z,77.20
2018-06-30T08:54:08.076Z,78.30
2018-06-30T08:56:37.550Z,80.70
2018-06-30T08:59:07.200Z,79.30
2018-06-30T09:01:36.680Z,79.80
2018-06-30T09:04:06.472Z,77.50
2018-06-30T09:06:35.831Z,76.70
2018-06-30T09:09:08.125Z,79.00
2018-06-30T09:11:37.477Z,75.40
2018-06-30T09:14:06.798Z,76.00
2018-06-30T09:16:36.136Z,76.70
2018-06-30T09:19:05.771Z,74.80
2018-06-30T09:21:35.100Z,74.20
2018-06-30T09:24:04.580Z,76.90
2018-06-30T09:26:33.907Z,76.30
2018-06-30T09:29:03.252Z,75.50
2018-06-30T09:31:32.619Z,73.90
2018-06-30T09:34:01.936Z,75.80
2018-06-30T09:36:31.316Z,74.10
2018-06-30T09:39:00.634Z,73.30
2018-06-30T09:41:30.016Z,74.80
2018-06-30T09:43:59.332Z,71.60
2018-06-30T09:46:28.645Z,70.60
2018-06-30T09:48:57.931Z,73.50
2018-06-30T09:51:27.299Z,72.90
2018-06-30T09:53:56.570Z,72.20
2018-06-30T09:56:25.938Z,73.10
2018-06-30T09:58:55.440Z,72.90
2018-06-30T10:01:24.813Z,72.70
2018-06-30T10:03:54.099Z,71.70
2018-06-30T10:06:23.417Z,71.60
2018-06-30T10:08:52.761Z,67.60
2018-06-30T10:11:22.087Z,72.90
2018-06-30T10:13:51.375Z,68.00
2018-06-30T10:16:20.737Z,67.90
2018-06-30T10:18:50.097Z,68.60
2018-06-30T10:21:19.502Z,70.10
2018-06-30T10:23:48.764Z,67.00
2018-06-30T10:26:18.082Z,67.50
2018-06-30T10:28:47.431Z,66.90
2018-06-30T10:31:16.807Z,67.10
2018-06-30T10:33:46.085Z,66.80
2018-06-30T10:36:15.403Z,65.10
2018-06-30T10:38:44.707Z,65.20
2018-06-30T10:41:14.083Z,67.40
2018-06-30T10:43:43.387Z,65.80
2018-06-30T10:46:12.734Z,66.30
2018-06-30T10:48:42.054Z,64.50
2018-06-30T10:51:11.381Z,64.00
2018-06-30T10:53:40.674Z,64.10
2018-06-30T10:56:10.065Z,62.30
2018-06-30T10:58:39.377Z,61.20
2018-06-30T11:01:08.659Z,61.60
2018-06-30T11:03:37.989Z,62.90
2018-06-30T11:06:07.349Z,64.10
2018-06-30T11:08:36.612Z,59.00
2018-06-30T11:11:05.994Z,60.60
2018-06-30T11:13:35.279Z,61.40
2018-06-30T11:16:04.644Z,59.10
2018-06-30T11:18:34.012Z,63.10
2018-06-30T11:21:03.336Z,60.00
2018-06-30T11:23:32.737Z,59.30
2018-06-30T11:26:02.080Z,59.00
2018-06-30T11:28:31.436Z,58.40
2018-06-30T11:31:00.777Z,59.60
2018-06-30T11:33:30.137Z,58.50
2018-06-30T11:35:59.464Z,57.40
2018-06-30T11:38:28.791Z,59.40
2018-06-30T11:40:58.192Z,56.90
2018-06-30T11:43:27.898Z,58.90
2018-06-30T11:45:57.285Z,60.00
2018-06-30T11:48:26.767Z,59.60
2018-06-30T11:50:56.221Z,58.40
2018-06-30T11:53:25.713Z,59.20
2018-06-30T11:55:55.264Z,56.20
2018-06-30T11:58:24.893Z,58.70
2018-06-30T12:00:54.529Z,58.50
2018-06-30T12:03:24.066Z,60.00
2018-06-30T12:05:53.497Z,56.10
2018-06-30T12:08:22.829Z,57.10
2018-06-30T12:10:52.103Z,58.20
2018-06-30T12:13:21.462Z,58.60
2018-06-30T12:15:50.766Z,59.80
2018-06-30T12:18:20.371Z,56.70
2018-06-30T12:20:49.715Z,59.50
2018-06-30T12:23:19.114Z,57.10
2018-06-30T12:25:48.708Z,59.40
2018-06-30T12:28:18.297Z,57.50
2018-06-30T12:30:47.728Z,54.70
2018-06-30T12:33:17.124Z,56.50
2018-06-30T12:35:46.445Z,57.10
2018-06-30T12:38:15.781Z,57.80
2018-06-30T12:40:45.077Z,54.10
2018-06-30T12:43:14.394Z,57.80
2018-06-30T12:45:44.775Z,56.10
2018-06-30T12:48:14.441Z,56.60
2018-06-30T12:50:43.954Z,54.10
2018-06-30T12:53:13.431Z,53.50
2018-06-30T12:55:42.879Z,55.60
2018-06-30T12:58:12.396Z,54.70
2018-06-30T13:00:42.064Z,52.50
2018-06-30T13:03:11.380Z,50.80
2018-06-30T13:05:41.092Z,52.80
2018-06-30T13:08:10.754Z,53.30
2018-06-30T13:10:40.368Z,52.80
2018-06-30T13:13:09.827Z,53.30
2018-06-30T13:15:39.856Z,55.60
2018-06-30T13:18:10.629Z,54.80
2018-06-30T13:20:40.334Z,51.50
2018-06-30T13:23:09.678Z,54.60
2018-06-30T13:25:39.020Z,54.90
2018-06-30T13:28:08.358Z,55.70
2018-06-30T13:30:37.732Z,53.30
2018-06-30T13:33:07.057Z,55.50
2018-06-30T13:35:36.369Z,52.70
2018-06-30T13:38:05.837Z,52.70
2018-06-30T13:40:35.207Z,51.40
2018-06-30T13:43:04.703Z,52.50
2018-06-30T13:45:34.099Z,53.80
2018-06-30T13:48:03.483Z,52.70
2018-06-30T13:50:32.785Z,53.10
2018-06-30T13:53:02.064Z,53.20
2018-06-30T13:55:31.385Z,55.40
2018-06-30T13:58:00.756Z,54.00
2018-06-30T14:00:30.098Z,53.90
2018-06-30T14:02:59.417Z,54.90
2018-06-30T14:05:28.809Z,54.40
2018-06-30T14:07:58.120Z,53.30
2018-06-30T14:10:27.475Z,52.50
2018-06-30T14:12:56.826Z,52.10
2018-06-30T14:15:28.924Z,54.30
2018-06-30T14:17:58.237Z,51.60
2018-06-30T14:20:27.649Z,51.40
2018-06-30T14:22:57.086Z,52.90
2018-06-30T14:25:26.409Z,50.90
2018-06-30T14:27:55.737Z,54.20
2018-06-30T14:30:25.034Z,51.50
2018-06-30T14:32:54.354Z,51.40
2018-06-30T14:35:23.666Z,52.60
2018-06-30T14:37:53.021Z,52.70
2018-06-30T14:40:22.507Z,52.70
2018-06-30T14:42:52.078Z,52.00
2018-06-30T14:45:21.540Z,50.10
2018-06-30T14:47:50.872Z,51.00
2018-06-30T14:50:20.148Z,52.50
2018-06-30T14:52:49.547Z,51.20
2018-06-30T14:55:18.863Z,51.00
2018-06-30T14:57:48.216Z,49.70
2018-06-30T15:00:17.540Z,50.50
2018-06-30T15:02:46.853Z,49.80
2018-06-30T15:05:16.148Z,51.20
2018-06-30T15:07:45.491Z,50.20
2018-06-30T15:10:14.807Z,51.00
2018-06-30T15:12:44.222Z,52.70
2018-06-30T15:15:13.464Z,52.50
2018-06-30T15:17:42.796Z,52.00
2018-06-30T15:20:12.180Z,49.60
2018-06-30T15:22:41.493Z,50.80
2018-06-30T15:25:10.791Z,48.90
2018-06-30T15:27:40.136Z,49.90
2018-06-30T15:30:09.518Z,50.50
2018-06-30T15:32:38.837Z,50.70
2018-06-30T15:35:08.135Z,52.00
2018-06-30T15:37:37.524Z,51.00
2018-06-30T15:40:07.563Z,49.70
2018-06-30T15:42:36.973Z,51.10
2018-06-30T15:45:07.613Z,51.40
2018-06-30T15:47:37.172Z,50.10
2018-06-30T15:50:06.739Z,49.10
2018-06-30T15:52:36.119Z,48.90
2018-06-30T15:55:06.547Z,49.90
2018-06-30T15:57:36.251Z,50.40
2018-06-30T16:00:06.233Z,49.70
2018-06-30T16:02:35.670Z,51.50
2018-06-30T16:05:05.128Z,49.70
2018-06-30T16:07:34.467Z,49.90
2018-06-30T16:10:03.925Z,52.20
2018-06-30T16:12:33.200Z,50.20
2018-06-30T16:15:02.537Z,51.10
2018-06-30T16:17:31.909Z,51.00
2018-06-30T16:20:01.201Z,51.90
2018-06-30T16:22:30.559Z,49.60
2018-06-30T16:24:59.827Z,50.00
2018-06-30T16:27:29.136Z,49.60
2018-06-30T16:29:58.454Z,50.10
2018-06-30T16:32:27.804Z,53.10
2018-06-30T16:34:57.224Z,50.80
2018-06-30T16:37:26.728Z,51.20
2018-06-30T16:39:56.273Z,50.80
2018-06-30T16:42:25.568Z,51.00
2018-06-30T16:44:54.879Z,51.20
2018-06-30T16:47:24.224Z,51.30
2018-06-30T16:49:53.553Z,51.20
2018-06-30T16:52:22.926Z,51.30
2018-06-30T16:54:52.722Z,51.30
2018-06-30T16:57:22.039Z,52.00
2018-06-30T16:59:51.387Z,51.60
2018-06-30T17:02:20.728Z,51.20
2018-06-30T17:04:50.128Z,50.50
2018-06-30T17:07:19.471Z,52.40
2018-06-30T17:09:48.800Z,52.00
2018-06-30T17:12:18.192Z,51.30
2018-06-30T17:14:47.559Z,51.10
2018-06-30T17:17:16.844Z,50.20
2018-06-30T17:19:46.208Z,50.40
2018-06-30T17:22:15.503Z,49.60
2018-06-30T17:24:45.273Z,50.10
2018-06-30T17:27:14.832Z,49.90
2018-06-30T17:29:44.369Z,49.50
2018-06-30T17:32:13.808Z,49.20
2018-06-30T17:34:43.356Z,50.00
2018-06-30T17:37:12.810Z,50.50
2018-06-30T17:39:42.312Z,51.10
2018-06-30T17:42:11.800Z,52.10
2018-06-30T17:44:41.214Z,52.30
2018-06-30T17:47:10.765Z,52.20
2018-06-30T17:49:40.220Z,52.20
2018-06-30T17:52:09.800Z,52.70
2018-06-30T17:54:39.323Z,53.00
2018-06-30T17:57:08.639Z,53.60
2018-06-30T17:59:37.975Z,54.30
2018-06-30T18:02:07.327Z,54.00
2018-06-30T18:04:36.656Z,53.90
2018-06-30T18:07:06.176Z,54.30
2018-06-30T18:09:35.503Z,54.40
2018-06-30T18:12:04.880Z,55.10
2018-06-30T18:14:34.201Z,55.40
2018-06-30T18:17:03.504Z,55.30
2018-06-30T18:19:32.864Z,55.70
2018-06-30T18:22:02.161Z,55.90
2018-06-30T18:24:31.496Z,56.00
2018-06-30T18:27:00.776Z,56.80
2018-06-30T18:29:30.112Z,56.40
2018-06-30T18:31:59.469Z,57.20
2018-06-30T18:34:28.778Z,57.70
2018-06-30T18:36:58.120Z,58.70
2018-06-30T18:39:27.480Z,58.70
2018-06-30T18:41:56.789Z,58.30
2018-06-30T18:44:26.136Z,58.20
2018-06-30T18:46:55.466Z,58.10
2018-06-30T18:49:24.752Z,58.70
2018-06-30T18:51:54.240Z,58.70
2018-06-30T18:54:23.849Z,59.00
2018-06-30T18:56:53.448Z,59.50
2018-06-30T18:59:23.012Z,59.60
2018-06-30T19:01:52.552Z,59.80
2018-06-30T19:04:21.996Z,60.30
2018-06-30T19:06:51.513Z,60.60
2018-06-30T19:09:20.959Z,60.70
2018-06-30T19:11:50.304Z,61.50
2018-06-30T19:14:21.140Z,61.80
2018-06-30T19:16:50.437Z,62.00
2018-06-30T19:19:19.760Z,62.00
2018-06-30T19:21:49.108Z,61.90
2018-06-30T19:24:18.453Z,62.20
2018-06-30T19:26:47.857Z,62.40
2018-06-30T19:29:17.116Z,62.80
2018-06-30T19:31:46.475Z,62.70
2018-06-30T19:34:15.785Z,63.20
2018-06-30T19:36:45.153Z,63.90
2018-06-30T19:39:14.463Z,63.30
2018-06-30T19:41:43.835Z,63.30
2018-06-30T19:44:13.184Z,62.90
2018-06-30T19:46:42.556Z,63.80
2018-06-30T19:49:11.861Z,63.70
2018-06-30T19:51:41.196Z,65.00
2018-06-30T19:54:10.492Z,65.20
2018-06-30T19:56:39.898Z,65.30
2018-06-30T19:59:09.236Z,65.30
2018-06-30T20:01:38.560Z,67.50
2018-06-30T20:04:07.921Z,69.00
2018-06-30T20:06:37.275Z,68.10
2018-06-30T20:09:07.786Z,68.70
2018-06-30T20:11:37.215Z,69.40
2018-06-30T20:14:06.620Z,70.80
2018-06-30T20:16:35.966Z,71.50
2018-06-30T20:19:05.345Z,70.90
2018-06-30T20:21:34.952Z,71.60
2018-06-30T20:24:04.313Z,73.20
2018-06-30T20:26:33.677Z,72.70
2018-06-30T20:29:02.987Z,72.10
2018-06-30T20:31:32.341Z,74.00
2018-06-30T20:34:01.624Z,72.50
2018-06-30T20:36:30.977Z,72.90
2018-06-30T20:39:00.357Z,73.30
2018-06-30T20:41:29.645Z,71.70
2018-06-30T20:43:58.999Z,72.50
2018-06-30T20:46:28.297Z,72.50
2018-06-30T20:48:57.664Z,70.70
2018-06-30T20:51:27.001Z,71.30
2018-06-30T20:53:56.392Z,71.20
2018-06-30T20:56:25.685Z,71.70
2018-06-30T20:58:55.029Z,70.80
2018-06-30T21:01:24.360Z,69.80
2018-06-30T21:03:53.678Z,69.70
2018-06-30T21:06:23.013Z,68.40
2018-06-30T21:08:52.372Z,68.50
2018-06-30T21:11:21.675Z,67.60
2018-06-30T21:13:51.040Z,67.20
2018-06-30T21:16:20.358Z,67.10
2018-06-30T21:18:49.720Z,67.40
2018-06-30T21:21:19.028Z,66.50
2018-06-30T21:23:48.387Z,66.50
2018-06-30T21:26:17.695Z,65.90
2018-06-30T21:28:47.072Z,66.00
2018-06-30T21:31:16.376Z,66.40
2018-06-30T21:33:45.676Z,64.50
2018-06-30T21:36:14.967Z,63.90
2018-06-30T21:38:44.315Z,63.90
2018-06-30T21:41:13.621Z,63.70
2018-06-30T21:43:42.954Z,61.90
2018-06-30T21:46:12.265Z,61.50
2018-06-30T21:48:41.591Z,61.00
2018-06-30T21:51:10.913Z,59.50
2018-06-30T21:53:40.225Z,59.00
2018-06-30T21:56:09.549Z,59.90
2018-06-30T21:58:38.861Z,60.00
2018-06-30T22:01:13.268Z,59.70
2018-06-30T22:03:42.969Z,59.50
2018-06-30T22:06:12.280Z,59.20
2018-06-30T22:08:41.619Z,59.60
2018-06-30T22:11:11.024Z,58.70
2018-06-30T22:13:40.318Z,58.40
2018-06-30T22:16:09.640Z,58.20
2018-06-30T22:18:39.115Z,57.70
2018-06-30T22:21:08.895Z,58.00
2018-06-30T22:23:38.189Z,57.50
2018-06-30T22:26:07.561Z,57.20
2018-06-30T22:28:36.889Z,57.00
2018-06-30T22:31:06.250Z,57.20
2018-06-30T22:33:35.543Z,57.30
2018-06-30T22:36:04.896Z,56.80
2018-06-30T22:38:34.246Z,56.80
2018-06-30T22:41:03.607Z,56.30
2018-06-30T22:43:32.909Z,56.10
2018-06-30T22:46:02.290Z,55.50
2018-06-30T22:48:31.576Z,55.60
2018-06-30T22:51:00.993Z,55.40
2018-06-30T22:53:30.332Z,54.90
2018-06-30T22:55:59.655Z,55.40
2018-06-30T22:58:28.960Z,54.20
2018-06-30T23:00:58.292Z,54.80
2018-06-30T23:03:27.645Z,53.90
2018-06-30T23:05:56.936Z,54.00
2018-06-30T23:08:26.233Z,53.30
2018-06-30T23:10:55.556Z,53.40
2018-06-30T23:13:24.856Z,52.60
2018-06-30T23:15:54.201Z,52.60
2018-06-30T23:18:23.530Z,52.20
2018-06-30T23:20:52.901Z,52.30
2018-06-30T23:23:22.173Z,53.00
2018-06-30T23:25:51.529Z,52.80
2018-06-30T23:28:20.902Z,52.90
2018-06-30T23:30:50.255Z,53.00
2018-06-30T23:33:25.065Z,52.60
2018-06-30T23:35:54.452Z,52.80
2018-06-30T23:38:23.827Z,53.30
2018-06-30T23:40:53.156Z,52.50
2018-06-30T23:43:22.469Z,53.00
2018-06-30T23:45:51.805Z,52.70
2018-06-30T23:48:21.209Z,52.50
2018-06-30T23:50:50.527Z,52.70
2018-06-30T23:53:19.854Z,52.30
2018-06-30T23:55:49.323Z,52.10
2018-06-30T23:58:18.604Z,52.30
